createdAt,value
2022-12-22T06:48:01.904Z,47.88
2022-12-22T06:49:02.887Z,49.46
2022-12-22T06:50:02.885Z,51.90
2022-12-22T06:51:02.866Z,55.04
2022-12-22T06:52:02.852Z,58.94
2022-12-22T06:53:02.853Z,63.68
2022-12-22T06:54:02.832Z,66.83
2022-12-22T06:55:02.827Z,69.93
2022-12-22T06:56:02.805Z,72.34
2022-12-22T06:57:02.823Z,74.56
2022-12-22T06:58:02.815Z,76.03
2022-12-22T06:59:02.780Z,78.36
2022-12-22T07:00:02.797Z,80.58
2022-12-22T07:01:02.832Z,82.37
2022-12-22T07:02:02.870Z,84.20
2022-12-22T07:03:02.956Z,85.43
2022-12-22T07:04:02.800Z,86.91
2022-12-22T07:05:02.717Z,87.46
2022-12-22T07:06:02.706Z,88.08
2022-12-22T07:07:02.687Z,88.90
2022-12-22T07:08:08.084Z,89.56
2022-12-22T07:09:02.695Z,89.87
2022-12-22T07:10:02.711Z,90.08
2022-12-22T07:11:02.701Z,90.94
2022-12-22T07:12:02.637Z,91.56
2022-12-22T07:13:02.856Z,91.56
2022-12-22T07:14:02.618Z,91.87
2022-12-22T07:15:02.611Z,92.12
2022-12-22T07:16:02.759Z,92.53
2022-12-22T07:17:02.646Z,92.94
2022-12-22T07:18:02.608Z,93.35
2022-12-22T07:19:02.596Z,93.66
2022-12-22T07:20:02.550Z,94.12
2022-12-22T07:21:02.651Z,94.64
2022-12-22T07:22:02.533Z,94.84
2022-12-22T07:23:02.551Z,95.25
2022-12-22T07:24:02.511Z,95.15
2022-12-22T07:25:02.529Z,95.15
2022-12-22T07:26:02.535Z,95.25
2022-12-22T07:27:02.534Z,95.61
2022-12-22T07:28:02.500Z,95.81
2022-12-22T07:29:02.506Z,96.02
2022-12-22T07:30:02.537Z,96.33
2022-12-22T07:31:02.484Z,96.33
2022-12-22T07:32:02.469Z,96.44
2022-12-22T07:33:02.464Z,96.44
2022-12-22T07:34:02.451Z,96.53
2022-12-22T07:35:05.676Z,96.74
2022-12-22T07:36:02.378Z,96.84
2022-12-22T07:37:02.375Z,96.95
2022-12-22T07:38:02.371Z,97.26
2022-12-22T07:39:02.376Z,97.47
2022-12-22T07:40:02.361Z,97.47
2022-12-22T07:41:05.186Z,97.47
2022-12-22T07:42:02.336Z,97.47
2022-12-22T07:43:02.308Z,97.36
2022-12-22T07:44:02.344Z,97.56
2022-12-22T07:45:02.291Z,97.67
2022-12-22T07:46:02.318Z,97.88
2022-12-22T07:47:02.348Z,97.98
2022-12-22T07:48:02.250Z,98.08
2022-12-22T07:49:02.302Z,98.33
2022-12-22T07:50:02.249Z,98.39
2022-12-22T07:51:02.246Z,98.54
2022-12-22T07:52:02.221Z,98.65
2022-12-22T07:53:02.194Z,98.70
2022-12-22T07:54:02.198Z,98.85
2022-12-22T07:55:02.194Z,98.96
2022-12-22T07:56:02.194Z,99.06
2022-12-22T07:57:02.158Z,99.11
2022-12-22T07:58:02.189Z,99.22
2022-12-22T07:59:02.148Z,99.22
2022-12-22T08:00:02.147Z,99.11
2022-12-22T08:01:02.132Z,99.11
2022-12-22T08:02:02.192Z,99.11
2022-12-22T08:03:02.205Z,99.22
2022-12-22T08:04:02.147Z,99.37
2022-12-22T08:05:02.120Z,99.32
2022-12-22T08:06:02.081Z,99.32
2022-12-22T08:07:02.054Z,99.43
2022-12-22T08:08:02.049Z,99.52
2022-12-22T08:09:02.022Z,99.63
2022-12-22T08:10:02.096Z,99.68
2022-12-22T08:11:02.016Z,99.63
2022-12-22T08:12:02.041Z,99.63
2022-12-22T08:13:02.072Z,99.63
2022-12-22T08:14:02.409Z,99.52
2022-12-22T08:15:02.024Z,99.52
2022-12-22T08:16:02.017Z,99.52
2022-12-22T08:17:01.976Z,99.52
2022-12-22T08:18:01.946Z,99.52
2022-12-22T08:19:01.937Z,99.63
2022-12-22T08:20:01.932Z,99.63
2022-12-22T08:21:01.937Z,99.63
2022-12-22T08:22:01.896Z,99.73
2022-12-22T08:23:01.881Z,99.63
2022-12-22T08:24:01.873Z,99.52
2022-12-22T08:25:01.876Z,99.73
2022-12-22T08:26:02.247Z,99.84
2022-12-22T08:27:01.841Z,99.84
2022-12-22T08:28:01.823Z,99.84
2022-12-22T08:29:01.813Z,99.94
2022-12-22T08:30:01.811Z,99.99
2022-12-22T08:31:01.870Z,99.99
2022-12-22T08:32:01.895Z,99.99
2022-12-22T08:33:01.787Z,99.99
2022-12-22T08:34:01.843Z,99.99
2022-12-22T08:35:01.756Z,99.99
2022-12-22T08:36:07.810Z,99.99
2022-12-22T08:37:01.843Z,99.99
2022-12-22T08:38:01.745Z,99.99
2022-12-22T08:39:01.715Z,99.99
2022-12-22T08:40:01.833Z,99.99
2022-12-22T08:41:01.716Z,99.99
2022-12-22T08:42:01.724Z,99.99
2022-12-22T08:43:01.667Z,99.99
2022-12-22T08:44:01.774Z,99.99
2022-12-22T08:45:01.733Z,99.99
2022-12-22T08:46:01.677Z,99.99
2022-12-22T08:47:01.801Z,99.99
2022-12-22T08:48:01.640Z,99.99
2022-12-22T08:49:01.608Z,99.99
2022-12-22T08:50:01.590Z,99.99
2022-12-22T08:51:01.579Z,99.99
2022-12-22T08:52:01.667Z,99.99
2022-12-22T08:53:01.559Z,99.99
2022-12-22T08:54:05.135Z,99.99
2022-12-22T08:55:01.563Z,99.99
2022-12-22T08:56:01.567Z,99.99
2022-12-22T08:57:01.525Z,99.99
2022-12-22T08:58:01.518Z,99.99
2022-12-22T08:59:01.509Z,99.99
2022-12-22T09:00:01.532Z,99.99
2022-12-22T09:01:01.527Z,99.99
2022-12-22T09:02:01.625Z,99.99
2022-12-22T09:03:01.606Z,99.99
2022-12-22T09:04:01.463Z,99.99
2022-12-22T09:05:01.457Z,99.99
2022-12-22T09:06:01.451Z,99.99
2022-12-22T09:07:01.516Z,99.99
2022-12-22T09:08:01.395Z,99.99
2022-12-22T09:09:01.423Z,99.99
2022-12-22T09:10:01.373Z,99.99
2022-12-22T09:11:01.379Z,99.99
2022-12-22T09:12:01.392Z,99.99
2022-12-22T09:13:01.341Z,99.99
2022-12-22T09:14:01.369Z,99.99
2022-12-22T09:15:01.360Z,99.99
2022-12-22T09:16:01.354Z,99.99
2022-12-22T09:17:01.435Z,99.99
2022-12-22T09:18:01.343Z,99.99
2022-12-22T09:19:01.319Z,99.99
2022-12-22T09:20:01.331Z,99.99
2022-12-22T09:21:01.311Z,99.99
2022-12-22T09:22:01.463Z,99.99
2022-12-22T09:23:01.232Z,99.99
2022-12-22T09:24:01.210Z,99.99
2022-12-22T09:25:01.209Z,99.99
2022-12-22T09:26:01.218Z,99.99
2022-12-22T09:27:01.207Z,99.99
2022-12-22T09:28:01.221Z,99.99
2022-12-22T09:29:01.182Z,99.99
2022-12-22T09:30:01.206Z,99.99
2022-12-22T09:31:01.147Z,99.99
2022-12-22T09:32:01.275Z,99.99
2022-12-22T09:33:01.200Z,99.99
2022-12-22T09:34:01.140Z,99.99
2022-12-22T09:35:01.137Z,99.99
2022-12-22T09:36:01.108Z,99.99
2022-12-22T09:37:01.090Z,99.99
2022-12-22T09:38:01.077Z,99.99
2022-12-22T09:39:01.079Z,99.99
2022-12-22T09:40:01.048Z,99.99
2022-12-22T09:41:01.074Z,99.99
2022-12-22T09:42:01.048Z,99.99
2022-12-22T09:43:01.028Z,99.99
2022-12-22T09:44:01.741Z,99.99
2022-12-22T09:45:01.002Z,99.99
2022-12-22T09:46:01.052Z,99.99
2022-12-22T09:47:00.972Z,99.99
2022-12-22T09:48:00.975Z,99.99
2022-12-22T09:49:01.051Z,99.99
2022-12-22T09:50:00.947Z,99.99
2022-12-22T09:51:00.939Z,99.99
2022-12-22T09:52:00.923Z,99.99
2022-12-22T09:53:00.983Z,99.99
2022-12-22T09:54:00.915Z,99.99
2022-12-22T09:55:00.913Z,99.99
2022-12-22T09:56:00.936Z,99.99
2022-12-22T09:57:00.881Z,99.99
2022-12-22T09:58:00.904Z,99.99
2022-12-22T09:59:00.862Z,99.99
2022-12-22T10:00:00.853Z,99.99
2022-12-22T10:01:00.992Z,99.99
2022-12-22T10:02:01.031Z,99.99
2022-12-22T10:03:01.861Z,99.99
2022-12-22T10:04:01.275Z,99.99
2022-12-22T10:05:00.868Z,99.99
2022-12-22T10:06:00.899Z,99.99
2022-12-22T10:07:00.788Z,99.99
2022-12-22T10:08:00.850Z,99.99
2022-12-22T10:09:00.765Z,99.99
2022-12-22T10:10:00.753Z,99.99
2022-12-22T10:11:00.712Z,99.99
2022-12-22T10:12:00.715Z,99.99
2022-12-22T10:13:00.688Z,99.99
2022-12-22T10:14:00.710Z,99.99
2022-12-22T10:15:00.720Z,99.99
2022-12-22T10:16:00.696Z,99.99
2022-12-22T10:17:00.739Z,99.99
2022-12-22T10:18:00.689Z,99.99
2022-12-22T10:19:00.650Z,99.99
2022-12-22T10:20:00.654Z,99.99
2022-12-22T10:21:00.619Z,99.99
2022-12-22T10:22:00.632Z,99.99
2022-12-22T10:23:00.582Z,99.99
2022-12-22T10:24:00.581Z,99.99
2022-12-22T10:25:00.594Z,99.99
2022-12-22T10:26:27.369Z,99.99
2022-12-22T10:27:00.554Z,99.99
2022-12-22T10:28:00.782Z,99.99
2022-12-22T10:29:00.554Z,99.99
2022-12-22T10:30:00.519Z,99.99
2022-12-22T10:31:00.512Z,99.99
2022-12-22T10:32:00.676Z,99.99
2022-12-22T10:33:00.485Z,99.99
2022-12-22T10:34:00.498Z,99.99
2022-12-22T10:35:00.480Z,99.99
2022-12-22T10:36:01.401Z,99.99
2022-12-22T10:37:00.442Z,99.99
2022-12-22T10:38:00.450Z,99.99
2022-12-22T10:39:00.420Z,99.99
2022-12-22T10:40:00.452Z,99.99
2022-12-22T10:41:02.707Z,99.99
2022-12-22T10:42:00.449Z,99.99
2022-12-22T10:43:00.370Z,99.99
2022-12-22T10:44:00.365Z,99.99
2022-12-22T10:45:00.423Z,99.99
2022-12-22T10:46:00.437Z,99.99
2022-12-22T10:47:00.352Z,99.99
2022-12-22T10:48:00.323Z,99.99
2022-12-22T10:49:00.310Z,99.99
2022-12-22T10:50:30.470Z,99.99
2022-12-22T10:51:31.471Z,99.99
2022-12-22T10:52:32.331Z,99.99
2022-12-22T10:53:31.430Z,99.99
2022-12-22T10:54:31.412Z,99.99
2022-12-22T10:55:31.418Z,99.99
2022-12-22T10:56:31.390Z,99.99
2022-12-22T10:57:31.449Z,99.99
2022-12-22T10:58:31.401Z,99.99
2022-12-22T10:59:31.399Z,99.99
2022-12-22T11:00:31.414Z,99.99
2022-12-22T11:01:31.568Z,99.99
2022-12-22T11:02:31.613Z,99.99
2022-12-22T11:03:31.540Z,99.99
2022-12-22T11:04:31.343Z,99.99
2022-12-22T11:05:31.367Z,99.99
2022-12-22T11:06:31.311Z,99.99
2022-12-22T11:07:31.277Z,99.99
2022-12-22T11:08:31.255Z,99.99
2022-12-22T11:09:34.541Z,99.99
2022-12-22T11:10:31.249Z,99.99
2022-12-22T11:11:31.244Z,99.99
2022-12-22T11:12:31.242Z,99.99
2022-12-22T11:13:31.212Z,99.99
2022-12-22T11:14:31.216Z,99.99
2022-12-22T11:15:31.205Z,99.99
2022-12-22T11:16:31.192Z,99.99
2022-12-22T11:17:31.197Z,99.99
2022-12-22T11:18:31.161Z,99.99
2022-12-22T11:19:31.159Z,99.99
2022-12-22T11:20:31.131Z,99.99
2022-12-22T11:21:31.278Z,99.99
2022-12-22T11:22:31.121Z,99.99
2022-12-22T11:23:31.118Z,99.99
2022-12-22T11:24:31.084Z,99.99
2022-12-22T11:25:31.070Z,99.99
2022-12-22T11:26:31.083Z,99.99
2022-12-22T11:27:31.103Z,99.99
2022-12-22T11:28:31.516Z,99.99
2022-12-22T11:29:31.035Z,99.99
2022-12-22T11:30:31.049Z,99.99
2022-12-22T11:31:31.130Z,99.99
2022-12-22T11:32:31.005Z,99.99
2022-12-22T11:33:31.002Z,99.99
2022-12-22T11:34:31.015Z,99.99
2022-12-22T11:35:30.962Z,99.99
2022-12-22T11:36:30.991Z,99.99
2022-12-22T11:37:30.956Z,99.99
2022-12-22T11:38:30.973Z,99.99
2022-12-22T11:39:30.964Z,99.99
2022-12-22T11:40:30.942Z,99.99
2022-12-22T11:41:30.914Z,99.99
2022-12-22T11:42:30.900Z,99.99
2022-12-22T11:43:30.893Z,99.99
2022-12-22T11:44:30.919Z,99.99
2022-12-22T11:45:30.883Z,99.99
2022-12-22T11:46:30.940Z,99.99
2022-12-22T11:47:30.868Z,99.99
2022-12-22T11:48:30.825Z,99.99
2022-12-22T11:49:30.837Z,99.99
2022-12-22T11:50:58.416Z,99.99
2022-12-22T11:51:30.848Z,99.99
2022-12-22T11:52:30.837Z,99.99
2022-12-22T11:53:30.802Z,99.99
2022-12-22T11:54:30.760Z,99.99
2022-12-22T11:55:30.781Z,99.99
2022-12-22T11:56:30.763Z,99.99
2022-12-22T11:57:30.730Z,99.99
2022-12-22T11:58:30.719Z,99.99
2022-12-22T11:59:30.804Z,99.99
2022-12-22T12:00:56.237Z,99.99
2022-12-22T12:01:30.867Z,99.99
2022-12-22T12:02:30.778Z,99.99
2022-12-22T12:03:30.823Z,99.99
2022-12-22T12:04:30.751Z,99.99
2022-12-22T12:05:30.637Z,99.99
2022-12-22T12:06:30.668Z,99.99
2022-12-22T12:07:30.673Z,99.99
2022-12-22T12:08:30.614Z,99.99
2022-12-22T12:09:30.609Z,99.99
2022-12-22T12:10:30.643Z,99.99
2022-12-22T12:11:30.604Z,99.99
2022-12-22T12:12:30.598Z,99.99
2022-12-22T12:13:36.865Z,99.99
2022-12-22T12:14:30.588Z,99.99
2022-12-22T12:15:30.542Z,99.99
2022-12-22T12:16:30.647Z,99.99
2022-12-22T12:17:30.555Z,99.99
2022-12-22T12:18:30.519Z,99.99
2022-12-22T12:19:30.536Z,99.99
2022-12-22T12:20:30.508Z,99.99
2022-12-22T12:21:30.568Z,99.99
2022-12-22T12:22:30.480Z,99.99
2022-12-22T12:23:30.496Z,99.99
2022-12-22T12:24:30.442Z,99.99
2022-12-22T12:25:30.458Z,99.99
2022-12-22T12:26:30.446Z,99.99
2022-12-22T12:27:30.419Z,99.99
2022-12-22T12:28:30.397Z,99.99
2022-12-22T12:29:30.391Z,99.99
2022-12-22T12:30:39.160Z,99.99
2022-12-22T12:31:30.503Z,99.99
2022-12-22T12:32:30.392Z,99.99
2022-12-22T12:33:30.366Z,99.99
2022-12-22T12:34:30.353Z,99.99
2022-12-22T12:35:30.358Z,99.99
2022-12-22T12:36:30.339Z,99.99
2022-12-22T12:37:30.339Z,99.99
2022-12-22T12:39:06.447Z,99.99
2022-12-22T12:39:30.298Z,99.99
2022-12-22T12:40:30.277Z,99.99
2022-12-22T12:41:30.265Z,99.99
2022-12-22T12:42:30.357Z,99.99
2022-12-22T12:43:30.239Z,99.99
2022-12-22T12:44:30.243Z,99.99
2022-12-22T12:45:30.223Z,99.99
2022-12-22T12:46:30.274Z,99.99
2022-12-22T12:47:30.220Z,99.99
2022-12-22T12:48:30.208Z,99.99
2022-12-22T12:49:30.169Z,99.99
2022-12-22T12:50:30.167Z,99.99
2022-12-22T12:51:30.202Z,99.99
2022-12-22T12:52:30.209Z,99.99
2022-12-22T12:53:30.203Z,99.99
2022-12-22T12:54:30.207Z,99.99
2022-12-22T12:55:32.836Z,99.99
2022-12-22T12:56:30.170Z,99.99
2022-12-22T12:57:30.102Z,99.99
2022-12-22T12:58:30.140Z,99.99
2022-12-22T12:59:30.078Z,99.99
2022-12-22T13:00:30.098Z,99.99
2022-12-22T13:01:30.148Z,99.99
2022-12-22T13:02:30.217Z,99.99
2022-12-22T13:04:01.876Z,99.99
2022-12-22T13:04:30.230Z,99.99
2022-12-22T13:05:30.061Z,99.99
2022-12-22T13:06:30.009Z,99.99
2022-12-22T13:07:29.982Z,99.99
2022-12-22T13:08:29.988Z,99.99
2022-12-22T13:10:30.016Z,99.99
2022-12-22T13:12:01.656Z,99.99
2022-12-22T13:12:29.955Z,99.99
2022-12-22T13:13:29.925Z,99.99
2022-12-22T13:14:29.990Z,99.99
2022-12-22T13:15:29.914Z,99.99
2022-12-22T13:16:30.061Z,99.99
2022-12-22T13:17:29.911Z,99.99
2022-12-22T13:18:29.878Z,99.99
2022-12-22T13:19:29.879Z,99.99
2022-12-22T13:20:29.855Z,99.99
2022-12-22T13:22:29.840Z,99.99
2022-12-22T13:23:29.829Z,99.99
2022-12-22T13:24:29.945Z,99.99
2022-12-22T13:25:29.840Z,99.99
2022-12-22T13:26:29.782Z,99.99
2022-12-22T13:27:29.797Z,99.99
2022-12-22T13:28:29.753Z,99.99
2022-12-22T13:29:29.740Z,99.99
2022-12-22T13:30:29.740Z,99.99
2022-12-22T13:31:29.778Z,99.99
2022-12-22T13:32:29.730Z,99.99
2022-12-22T13:33:29.733Z,99.99
2022-12-22T13:34:29.745Z,99.99
2022-12-22T13:35:32.099Z,99.99
2022-12-22T13:36:29.697Z,99.99
2022-12-22T13:37:29.691Z,99.99
2022-12-22T13:38:29.660Z,99.99
2022-12-22T13:39:29.650Z,99.99
2022-12-22T13:40:29.644Z,99.99
2022-12-22T13:41:29.749Z,99.99
2022-12-22T13:42:29.720Z,99.99
2022-12-22T13:43:29.629Z,99.99
2022-12-22T13:44:29.607Z,99.99
2022-12-22T13:45:29.639Z,99.99
2022-12-22T13:46:29.647Z,99.99
2022-12-22T13:47:29.569Z,99.99
2022-12-22T13:48:29.568Z,99.99
2022-12-22T13:49:59.271Z,99.99
2022-12-22T13:50:29.552Z,99.99
2022-12-22T13:51:29.530Z,99.99
2022-12-22T13:52:29.496Z,99.99
2022-12-22T13:54:29.508Z,99.99
2022-12-22T13:55:29.488Z,99.99
2022-12-22T13:56:29.488Z,99.99
2022-12-22T13:57:29.532Z,99.99
2022-12-22T13:58:29.496Z,99.99
2022-12-22T13:59:29.505Z,99.99
2022-12-22T14:00:29.533Z,99.99
2022-12-22T14:01:29.585Z,99.99
2022-12-22T14:02:29.596Z,99.99
2022-12-22T14:03:58.282Z,99.99
2022-12-22T14:04:29.664Z,99.99
2022-12-22T14:05:29.372Z,99.99
2022-12-22T14:06:29.421Z,99.99
2022-12-22T14:07:29.430Z,99.99
2022-12-22T14:08:29.452Z,99.99
2022-12-22T14:09:29.468Z,99.99
2022-12-22T14:10:29.432Z,99.99
2022-12-22T14:11:29.295Z,99.99
2022-12-22T14:12:29.292Z,99.99
2022-12-22T14:13:29.288Z,99.99
2022-12-22T14:14:29.279Z,99.99
2022-12-22T14:15:29.250Z,99.99
2022-12-22T14:16:29.338Z,99.99
2022-12-22T14:17:29.254Z,99.99
2022-12-22T14:18:29.227Z,99.99
2022-12-22T14:19:29.219Z,99.99
2022-12-22T14:20:29.217Z,99.99
2022-12-22T14:21:29.197Z,99.99
2022-12-22T14:22:29.213Z,99.99
2022-12-22T14:23:29.183Z,99.99
2022-12-22T14:24:33.229Z,99.99
2022-12-22T14:25:29.156Z,99.99
2022-12-22T14:26:29.165Z,99.99
2022-12-22T14:27:29.115Z,99.99
2022-12-22T14:28:29.135Z,99.99
2022-12-22T14:29:29.127Z,99.99
2022-12-22T14:30:32.171Z,99.99
2022-12-22T14:31:29.174Z,99.99
2022-12-22T14:32:29.060Z,99.99
2022-12-22T14:33:29.053Z,99.99
2022-12-22T14:34:29.041Z,99.99
2022-12-22T14:35:29.054Z,99.99
2022-12-22T14:36:29.034Z,99.99
2022-12-22T14:37:32.890Z,99.99
2022-12-22T14:38:29.032Z,99.99
2022-12-22T14:39:29.015Z,99.99
2022-12-22T14:40:29.067Z,99.99
2022-12-22T14:41:28.978Z,99.99
2022-12-22T14:42:28.959Z,99.99
2022-12-22T14:43:28.960Z,99.99
2022-12-22T14:44:28.981Z,99.99
2022-12-22T14:45:28.980Z,99.99
2022-12-22T14:46:32.345Z,99.99
2022-12-22T14:47:28.938Z,99.99
2022-12-22T14:48:28.894Z,99.99
2022-12-22T14:49:28.910Z,99.99
2022-12-22T14:50:28.912Z,99.99
2022-12-22T14:51:28.880Z,99.99
2022-12-22T14:52:28.857Z,99.99
2022-12-22T14:53:28.845Z,99.99
2022-12-22T14:54:28.860Z,99.99
2022-12-22T14:55:28.840Z,99.99
2022-12-22T14:56:28.810Z,99.99
2022-12-22T14:57:28.821Z,99.99
2022-12-22T14:58:28.819Z,99.99
2022-12-22T14:59:28.791Z,99.99
2022-12-22T15:00:29.137Z,99.99
2022-12-22T15:01:29.060Z,99.99
2022-12-22T15:02:33.430Z,99.99
2022-12-22T15:03:28.880Z,99.99
2022-12-22T15:04:28.729Z,99.99
2022-12-22T15:05:28.721Z,99.99
2022-12-22T15:06:28.713Z,99.99
2022-12-22T15:08:03.819Z,99.99
2022-12-22T15:08:33.306Z,99.99
2022-12-22T15:10:12.543Z,99.99
2022-12-22T15:10:28.680Z,99.99
2022-12-22T15:11:28.682Z,99.99
2022-12-22T15:12:28.666Z,99.99
2022-12-22T15:13:28.637Z,99.99
2022-12-22T15:14:33.377Z,99.99
2022-12-22T15:15:28.640Z,99.99
2022-12-22T15:16:28.694Z,99.99
2022-12-22T15:17:28.582Z,99.99
2022-12-22T15:18:28.598Z,99.99
2022-12-22T15:19:28.573Z,99.99
2022-12-22T15:20:33.626Z,99.99
2022-12-22T15:21:28.563Z,99.99
2022-12-22T15:22:28.536Z,99.99
2022-12-22T15:23:28.519Z,99.99
2022-12-22T15:24:28.517Z,99.99
2022-12-22T15:25:28.507Z,99.99
2022-12-22T15:26:33.013Z,99.99
2022-12-22T15:27:28.489Z,99.99
2022-12-22T15:28:28.465Z,99.99
2022-12-22T15:29:28.452Z,99.99
2022-12-22T15:30:31.892Z,99.99
2022-12-22T15:31:28.619Z,99.99
2022-12-22T15:32:31.870Z,99.99
2022-12-22T15:33:28.467Z,99.99
2022-12-22T15:34:28.555Z,99.99
2022-12-22T15:35:28.458Z,99.99
2022-12-22T15:36:28.481Z,99.99
2022-12-22T15:37:28.427Z,99.99
2022-12-22T15:38:32.165Z,99.99
2022-12-22T15:39:28.415Z,99.99
2022-12-22T15:40:28.433Z,99.99
2022-12-22T15:41:28.437Z,99.99
2022-12-22T15:42:28.400Z,99.99
2022-12-22T15:43:56.485Z,99.99
2022-12-22T15:44:31.080Z,99.99
2022-12-22T15:45:28.369Z,99.99
2022-12-22T15:46:28.378Z,99.99
2022-12-22T15:47:28.333Z,99.99
2022-12-22T15:48:28.320Z,99.99
2022-12-22T15:49:28.330Z,99.99
2022-12-22T15:50:32.170Z,99.99
2022-12-22T15:51:28.292Z,99.99
2022-12-22T15:52:28.261Z,99.99
2022-12-22T15:53:28.266Z,99.99
2022-12-22T15:54:28.245Z,99.99
2022-12-22T15:55:28.244Z,99.99
2022-12-22T15:56:28.225Z,99.99
2022-12-22T15:57:28.212Z,99.99
2022-12-22T15:58:28.199Z,99.99
2022-12-22T15:59:28.200Z,99.99
2022-12-22T16:00:28.176Z,99.99
2022-12-22T16:01:28.281Z,99.99
2022-12-22T16:02:28.335Z,99.99
2022-12-22T16:03:28.295Z,99.99
2022-12-22T16:04:28.163Z,99.99
2022-12-22T16:05:28.140Z,99.99
2022-12-22T16:06:28.111Z,99.99
2022-12-22T16:07:28.131Z,99.99
2022-12-22T16:08:28.110Z,99.99
2022-12-22T16:09:28.102Z,99.99
2022-12-22T16:10:28.097Z,99.99
2022-12-22T16:11:28.064Z,99.99
2022-12-22T16:12:28.073Z,99.99
2022-12-22T16:13:28.794Z,99.99
2022-12-22T16:14:31.184Z,99.99
2022-12-22T16:15:28.044Z,99.99
2022-12-22T16:16:28.105Z,99.99
2022-12-22T16:17:28.021Z,99.99
2022-12-22T16:18:27.993Z,99.99
2022-12-22T16:19:27.981Z,99.99
2022-12-22T16:20:29.658Z,99.99
2022-12-22T16:21:27.977Z,99.99
2022-12-22T16:22:27.985Z,99.99
2022-12-22T16:23:27.971Z,99.99
2022-12-22T16:24:27.929Z,99.99
2022-12-22T16:25:27.924Z,99.99
2022-12-22T16:26:27.917Z,99.99
2022-12-22T16:27:27.889Z,99.99
2022-12-22T16:28:27.930Z,99.99
2022-12-22T16:29:27.998Z,99.99
2022-12-22T16:30:27.860Z,99.99
2022-12-22T16:31:27.956Z,99.99
2022-12-22T16:32:27.829Z,99.99
2022-12-22T16:33:27.861Z,99.99
2022-12-22T16:34:27.823Z,99.99
2022-12-22T16:35:27.803Z,99.99
2022-12-22T16:36:27.792Z,99.99
2022-12-22T16:37:27.784Z,99.99
2022-12-22T16:38:27.776Z,99.99
2022-12-22T16:39:27.755Z,99.99
2022-12-22T16:40:27.748Z,99.99
2022-12-22T16:41:27.742Z,99.99
2022-12-22T16:43:52.860Z,99.99
2022-12-22T16:45:00.303Z,99.99
2022-12-22T16:45:40.255Z,99.99
2022-12-22T16:46:39.478Z,99.99
2022-12-22T16:47:39.266Z,99.99
2022-12-22T16:48:39.280Z,99.99
2022-12-22T16:49:39.254Z,99.99
2022-12-22T16:50:39.242Z,99.97
2022-12-22T16:51:39.255Z,99.81
2022-12-22T16:52:39.264Z,99.71
2022-12-22T16:53:39.220Z,99.51
2022-12-22T16:54:39.206Z,99.71
2022-12-22T16:55:39.189Z,99.81
2022-12-22T16:56:39.165Z,99.81
2022-12-22T16:57:39.183Z,99.60
2022-12-22T16:58:39.152Z,99.81
2022-12-22T16:59:39.167Z,99.86
2022-12-22T17:00:39.149Z,99.99
2022-12-22T17:01:39.211Z,99.99
2022-12-22T17:02:39.341Z,99.99
2022-12-22T17:03:39.181Z,99.99
2022-12-22T17:04:39.094Z,99.99
2022-12-22T17:05:44.527Z,99.99
2022-12-22T17:06:39.093Z,99.99
2022-12-22T17:07:39.076Z,99.99
2022-12-22T17:08:39.054Z,99.99
2022-12-22T17:09:39.039Z,99.99
2022-12-22T17:10:39.067Z,99.99
2022-12-22T17:11:39.066Z,99.99
2022-12-22T17:12:39.023Z,99.99
2022-12-22T17:13:39.056Z,99.99
2022-12-22T17:14:39.026Z,99.99
2022-12-22T17:15:39.026Z,99.99
2022-12-22T17:16:39.014Z,99.99
2022-12-22T17:17:42.363Z,99.99
2022-12-22T17:18:38.942Z,99.99
2022-12-22T17:19:38.946Z,99.99
2022-12-22T17:20:38.931Z,99.99
2022-12-22T17:21:38.960Z,99.99
2022-12-22T17:22:39.069Z,99.99
2022-12-22T17:23:38.892Z,99.99
2022-12-22T17:24:38.870Z,99.99
2022-12-22T17:25:38.874Z,99.99
2022-12-22T17:26:38.866Z,99.99
2022-12-22T17:27:38.880Z,99.99
2022-12-22T17:28:38.871Z,99.99
2022-12-22T17:29:38.825Z,99.99
2022-12-22T17:30:38.805Z,99.99
2022-12-22T17:31:38.853Z,99.99
2022-12-22T17:32:38.796Z,99.99
2022-12-22T17:33:38.783Z,99.99
2022-12-22T17:34:38.803Z,99.99
2022-12-22T17:35:38.751Z,99.99
2022-12-22T17:36:38.759Z,99.99
2022-12-22T17:37:38.736Z,99.99
2022-12-22T17:38:38.733Z,99.99
2022-12-22T17:39:38.749Z,99.99
2022-12-22T17:40:38.787Z,99.99
2022-12-22T17:41:38.751Z,99.99
2022-12-22T17:42:38.721Z,99.99
2022-12-22T17:43:38.675Z,99.99
2022-12-22T17:44:38.693Z,99.99
2022-12-22T17:45:38.651Z,99.99
2022-12-22T17:46:38.684Z,99.99
2022-12-22T17:47:42.721Z,99.99
2022-12-22T17:48:38.623Z,99.99
2022-12-22T17:49:38.619Z,99.99
2022-12-22T17:50:38.597Z,99.99
2022-12-22T17:51:38.608Z,99.99
2022-12-22T17:52:38.596Z,99.99
2022-12-22T17:53:41.038Z,99.99
2022-12-22T17:54:38.586Z,99.99
2022-12-22T17:56:07.019Z,99.99
2022-12-22T17:56:38.571Z,99.99
2022-12-22T17:57:38.534Z,99.99
2022-12-22T17:58:38.540Z,99.99
2022-12-22T17:59:38.506Z,99.99
2022-12-22T18:00:38.505Z,99.99
2022-12-22T18:01:38.597Z,99.99
2022-12-22T18:02:38.658Z,99.99
2022-12-22T18:03:38.511Z,99.99
2022-12-22T18:04:38.449Z,99.99
2022-12-22T18:05:38.437Z,99.99
2022-12-22T18:06:38.422Z,99.99
2022-12-22T18:07:43.651Z,99.99
2022-12-22T18:08:38.399Z,99.99
2022-12-22T18:09:38.406Z,99.99
2022-12-22T18:10:38.376Z,99.99
2022-12-22T18:11:45.482Z,99.99
2022-12-22T18:12:38.467Z,99.99
2022-12-22T18:13:38.375Z,99.99
2022-12-22T18:14:38.324Z,99.99
2022-12-22T18:15:38.343Z,99.99
2022-12-22T18:16:38.370Z,99.99
2022-12-22T18:17:38.318Z,99.99
2022-12-22T18:18:38.308Z,99.99
2022-12-22T18:19:38.306Z,99.99
2022-12-22T18:20:38.265Z,99.99
2022-12-22T18:21:38.256Z,99.99
2022-12-22T18:22:38.351Z,99.99
2022-12-22T18:23:38.289Z,99.99
2022-12-22T18:24:38.226Z,99.99
2022-12-22T18:25:38.235Z,99.99
2022-12-22T18:26:38.223Z,99.99
2022-12-22T18:27:38.241Z,99.99
2022-12-22T18:28:38.186Z,99.99
2022-12-22T18:29:38.165Z,99.99
2022-12-22T18:30:38.174Z,99.99
2022-12-22T18:31:38.223Z,99.99
2022-12-22T18:32:38.148Z,99.99
2022-12-22T18:33:38.153Z,99.99
2022-12-22T18:34:38.124Z,99.99
2022-12-22T18:35:38.113Z,99.99
2022-12-22T18:36:38.356Z,99.99
2022-12-22T18:37:38.091Z,99.99
2022-12-22T18:38:38.090Z,99.99
2022-12-22T18:39:38.141Z,99.99
2022-12-22T18:40:38.048Z,99.99
2022-12-22T18:41:38.066Z,99.99
2022-12-22T18:42:38.057Z,99.99
2022-12-22T18:43:38.035Z,99.99
2022-12-22T18:44:38.023Z,99.99
2022-12-22T18:45:38.023Z,99.99
2022-12-22T18:46:38.029Z,99.99
2022-12-22T18:47:37.983Z,99.99
2022-12-22T18:48:37.976Z,99.99
2022-12-22T18:49:38.074Z,99.99
2022-12-22T18:50:38.006Z,99.99
2022-12-22T18:51:37.989Z,99.99
2022-12-22T18:52:37.967Z,99.99
2022-12-22T18:53:37.940Z,99.99
2022-12-22T18:54:37.907Z,99.99
2022-12-22T18:55:37.941Z,99.99
2022-12-22T18:56:37.924Z,99.99
2022-12-22T18:57:37.904Z,99.99
2022-12-22T18:58:37.918Z,99.99
2022-12-22T18:59:37.934Z,99.99
2022-12-22T19:00:37.943Z,99.99
2022-12-22T19:01:38.113Z,99.99
2022-12-22T19:02:37.967Z,99.99
2022-12-22T19:03:37.806Z,99.99
2022-12-22T19:04:37.801Z,99.99
2022-12-22T19:05:37.836Z,99.99
2022-12-22T19:06:37.789Z,99.99
2022-12-22T19:07:37.826Z,99.99
2022-12-22T19:08:43.423Z,99.99
2022-12-22T19:09:37.755Z,99.99
2022-12-22T19:10:37.738Z,99.84
2022-12-22T19:11:37.742Z,99.94
2022-12-22T19:12:37.732Z,99.99
2022-12-22T19:13:37.703Z,99.94
2022-12-22T19:14:37.691Z,99.99
2022-12-22T19:15:37.694Z,99.99
2022-12-22T19:16:37.733Z,99.99
2022-12-22T19:17:37.666Z,99.99
2022-12-22T19:18:37.667Z,99.99
2022-12-22T19:19:37.647Z,99.99
2022-12-22T19:20:37.655Z,99.99
2022-12-22T19:21:37.622Z,99.99
2022-12-22T19:22:37.619Z,99.99
2022-12-22T19:23:37.619Z,99.99
2022-12-22T19:24:37.638Z,99.99
2022-12-22T19:25:37.604Z,99.99
2022-12-22T19:26:37.561Z,99.99
2022-12-22T19:27:37.611Z,99.99
2022-12-22T19:28:37.589Z,99.99
2022-12-22T19:29:37.545Z,99.99
2022-12-22T19:30:37.560Z,99.99
2022-12-22T19:31:37.614Z,99.99
2022-12-22T19:32:37.627Z,99.99
2022-12-22T19:33:37.489Z,99.99
2022-12-22T19:34:37.500Z,99.99
2022-12-22T19:35:38.408Z,99.99
2022-12-22T19:36:37.462Z,99.99
2022-12-22T19:37:37.447Z,99.99
2022-12-22T19:38:37.452Z,99.99
2022-12-22T19:39:37.484Z,99.99
2022-12-22T19:40:37.426Z,99.99
2022-12-22T19:41:37.486Z,99.99
2022-12-22T19:42:37.411Z,99.99
2022-12-22T19:43:37.389Z,99.99
2022-12-22T19:44:37.375Z,99.99